Time;durP1;ratioP1;P1;durP2;ratioP2;P2;SDS_P1;SDS_P2;PMS_P1;PMS_P2;Temp;Humidity;BMP_temperature;BMP_pressure;BME280_temperature;BME280_humidity;BME280_pressure;Samples;Min_cycle;Max_cycle;Signal;HPM_P1;HPM_P2
2023/09/11 00:00:59;;;;;;;458.57;235.77;;;;;;;;;;4955627;28;20185;-75
2023/09/11 00:03:25;;;;;;;494.93;264.97;;;;;;;;;;4952553;28;20942;-77
2023/09/11 00:05:51;;;;;;;467.37;237.33;;;;;;;;;;4955214;28;20312;-75
2023/09/11 00:08:17;;;;;;;464.53;236.87;;;;;;;;;;4970452;28;20316;-77
2023/09/11 00:10:43;;;;;;;495.93;255.30;;;;;;;;;;4971485;28;20222;-75
2023/09/11 00:13:09;;;;;;;459.83;238.77;;;;;;;;;;4960634;28;20304;-75
2023/09/11 00:15:35;;;;;;;466.03;242.63;;;;;;;;;;4976012;28;20578;-76
2023/09/11 00:18:01;;;;;;;472.87;242.50;;;;;;;;;;4962210;28;20223;-75
2023/09/11 00:20:27;;;;;;;531.67;283.07;;;;;;;;;;4950863;28;20216;-78
2023/09/11 00:22:53;;;;;;;477.20;243.33;;;;;;;;;;4957636;28;20214;-78
2023/09/11 00:25:19;;;;;;;483.77;250.73;;;;;;;;;;4940731;28;20231;-75
2023/09/11 00:27:45;;;;;;;502.30;266.03;;;;;;;;;;4936552;28;20197;-75
2023/09/11 00:30:11;;;;;;;479.00;251.73;;;;;;;;;;4956300;28;20198;-77
2023/09/11 00:32:36;;;;;;;442.93;229.13;;;;;;;;;;4963120;28;20225;-76
2023/09/11 00:35:02;;;;;;;478.73;250.00;;;;;;;;;;4954042;28;20225;-74
2023/09/11 00:37:28;;;;;;;491.53;256.90;;;;;;;;;;4938824;28;20226;-75
2023/09/11 00:39:54;;;;;;;490.63;254.93;;;;;;;;;;4960056;28;20240;-74
2023/09/11 00:42:20;;;;;;;460.17;237.23;;;;;;;;;;4963503;28;20178;-74
2023/09/11 00:44:46;;;;;;;482.70;245.87;;;;;;;;;;4960589;28;20221;-74
2023/09/11 00:47:12;;;;;;;435.57;224.17;;;;;;;;;;4943017;28;20221;-76
2023/09/11 00:49:39;;;;;;;479.53;250.93;;;18.60;99.90;;;;;;4954131;28;20340;-74
2023/09/11 00:52:05;;;;;;;472.83;245.43;;;;;;;;;;4956095;28;21643;-73
2023/09/11 00:54:31;;;;;;;467.17;240.80;;;;;;;;;;4952448;28;20215;-75
2023/09/11 00:56:57;;;;;;;457.30;232.13;;;;;;;;;;4938988;28;20338;-74
2023/09/11 00:59:23;;;;;;;498.63;263.33;;;18.60;99.90;;;;;;4934336;28;20214;-76
2023/09/11 01:01:49;;;;;;;477.00;241.83;;;;;;;;;;4957542;28;20293;-75
2023/09/11 01:04:16;;;;;;;435.30;222.93;;;18.50;99.90;;;;;;4952573;28;20229;-76
2023/09/11 01:06:42;;;;;;;450.37;222.20;;;;;;;;;;4963628;28;20182;-75
2023/09/11 01:09:08;;;;;;;479.23;252.97;;;;;;;;;;4956214;28;20299;-74
2023/09/11 01:11:34;;;;;;;501.37;260.13;;;;;;;;;;4934986;28;20257;-74
2023/09/11 01:14:00;;;;;;;481.23;243.90;;;;;;;;;;4957673;28;20312;-74
2023/09/11 01:16:43;;;;;;;504.00;256.77;;;18.40;99.90;;;;;;4934105;28;20313;-75
2023/09/11 01:19:31;;;;;;;464.07;230.63;;;18.30;99.90;;;;;;4962240;28;20308;-73
2023/09/11 01:22:14;;;;;;;490.80;251.13;;;18.20;99.90;;;;;;4947589;28;20326;-74
2023/09/11 01:24:54;;;;;;;511.37;263.70;;;19.80;99.90;;;;;;4956239;28;20201;-76
2023/09/11 01:28:12;;;;;;;476.17;247.23;;;18.10;99.90;;;;;;4953364;28;20906;-75
2023/09/11 01:30:40;;;;;;;515.57;265.47;;;18.00;99.90;;;;;;4827588;29;21313;-75
2023/09/11 01:33:06;;;;;;;473.50;234.40;;;;;;;;;;4922356;28;20226;-74
2023/09/11 01:35:32;;;;;;;522.20;268.27;;;;;;;;;;4949866;28;20233;-75
2023/09/11 01:37:58;;;;;;;500.87;260.70;;;;;;;;;;4955984;28;20218;-76
2023/09/11 01:40:25;;;;;;;492.63;247.80;;;19.10;99.90;;;;;;4958620;28;20217;-76
2023/09/11 01:42:56;;;;;;;452.67;225.60;;;18.00;99.90;;;;;;4929633;28;20644;-74
2023/09/11 01:45:22;;;;;;;515.67;261.70;;;17.90;99.90;;;;;;4931947;28;20207;-74
2023/09/11 01:47:50;;;;;;;502.73;256.00;;;;;;;;;;4963047;28;20236;-76
2023/09/11 01:50:17;;;;;;;487.30;241.37;;;17.80;99.90;;;;;;4940227;28;20272;-74
2023/09/11 01:52:45;;;;;;;491.83;248.10;;;17.80;99.90;;;;;;4953418;28;20317;-74
2023/09/11 01:55:11;;;;;;;461.63;229.63;;;;;;;;;;4934531;28;20327;-75
2023/09/11 01:57:37;;;;;;;464.87;232.93;;;;;;;;;;4956264;28;20702;-75
2023/09/11 02:00:05;;;;;;;477.93;243.60;;;17.70;99.90;;;;;;4951649;28;20221;-76
2023/09/11 02:02:31;;;;;;;488.23;244.13;;;;;;;;;;4953857;28;20222;-75
2023/09/11 02:04:57;;;;;;;482.57;240.03;;;;;;;;;;4959029;28;20253;-74
2023/09/11 02:07:22;;;;;;;450.43;220.67;;;;;;;;;;4961226;28;20221;-76
2023/09/11 02:09:48;;;;;;;461.13;228.70;;;;;;;;;;4944401;28;21051;-75
2023/09/11 02:12:14;;;;;;;481.83;243.30;;;;;;;;;;4950157;28;20803;-74
2023/09/11 02:14:40;;;;;;;483.13;239.30;;;;;;;;;;4954604;28;20440;-75
2023/09/11 02:17:06;;;;;;;464.93;229.13;;;;;;;;;;4953078;28;20703;-74
2023/09/11 02:19:32;;;;;;;478.40;238.50;;;;;;;;;;4956358;28;20219;-74
2023/09/11 02:21:58;;;;;;;510.50;256.10;;;;;;;;;;4958470;28;20186;-75
2023/09/11 02:24:24;;;;;;;462.07;227.73;;;;;;;;;;4938783;28;20209;-77
2023/09/11 02:26:50;;;;;;;486.70;234.77;;;;;;;;;;4933268;28;20229;-77
2023/09/11 02:29:16;;;;;;;505.23;248.70;;;;;;;;;;4959020;28;20217;-76
2023/09/11 02:31:42;;;;;;;477.30;231.03;;;;;;;;;;4959990;28;20214;-75
2023/09/11 02:34:08;;;;;;;506.33;249.07;;;;;;;;;;4931808;28;20237;-77
2023/09/11 02:36:34;;;;;;;489.67;239.90;;;;;;;;;;4953821;28;20213;-75
2023/09/11 02:39:00;;;;;;;466.93;227.33;;;;;;;;;;4955456;28;20222;-75
2023/09/11 02:41:26;;;;;;;488.27;241.23;;;;;;;;;;4951453;28;20221;-75
2023/09/11 02:43:51;;;;;;;452.23;216.10;;;;;;;;;;4948950;28;21010;-75
2023/09/11 02:46:17;;;;;;;454.50;220.77;;;;;;;;;;4957030;28;20276;-75
2023/09/11 02:48:45;;;;;;;503.17;249.20;;;17.20;99.90;;;;;;4940892;28;20190;-75
2023/09/11 02:51:11;;;;;;;471.50;227.50;;;;;;;;;;4957874;28;20301;-76
2023/09/11 02:53:38;;;;;;;478.97;232.13;;;;;;;;;;4953590;28;20233;-77
2023/09/11 02:56:04;;;;;;;475.87;230.53;;;;;;;;;;4972885;28;20945;-75
2023/09/11 02:58:30;;;;;;;482.93;239.73;;;;;;;;;;4973102;28;20653;-75
2023/09/11 03:01:03;;;;;;;449.37;222.17;;;17.30;99.90;;;;;;4959379;28;20181;-76
2023/09/11 03:03:29;;;;;;;471.60;226.33;;;;;;;;;;4974970;28;20224;-75
2023/09/11 03:06:00;;;;;;;487.47;235.27;;;17.20;99.90;;;;;;4949733;28;20214;-75
2023/09/11 03:08:26;;;;;;;474.83;226.57;;;;;;;;;;4954648;28;20280;-75
2023/09/11 03:10:51;;;;;;;457.33;222.97;;;;;;;;;;4958242;28;20218;-75
2023/09/11 03:13:17;;;;;;;449.33;214.97;;;;;;;;;;4949908;28;20333;-76
2023/09/11 03:15:43;;;;;;;440.53;208.13;;;;;;;;;;4948696;28;20757;-75
2023/09/11 03:18:10;;;;;;;455.87;218.43;;;;;;;;;;4942591;28;23916;-75
2023/09/11 03:20:35;;;;;;;466.37;228.87;;;;;;;;;;4960774;28;20664;-74
2023/09/11 03:23:02;;;;;;;464.07;221.50;;;;;;;;;;4960147;28;20210;-76
2023/09/11 03:25:28;;;;;;;525.23;261.07;;;;;;;;;;4937666;28;20226;-77
2023/09/11 03:27:54;;;;;;;465.83;221.40;;;;;;;;;;4961458;28;20198;-75
2023/09/11 03:30:20;;;;;;;480.90;231.90;;;;;;;;;;4936602;28;20173;-77
2023/09/11 03:32:46;;;;;;;496.90;244.73;;;;;;;;;;4955480;28;20245;-78
2023/09/11 03:35:12;;;;;;;495.70;241.07;;;;;;;;;;4961159;28;20420;-76
2023/09/11 03:37:38;;;;;;;481.87;234.00;;;;;;;;;;4962898;28;20303;-77
2023/09/11 03:40:07;;;;;;;457.77;216.47;;;;;;;;;;4956086;28;20269;-75
2023/09/11 03:42:36;;;;;;;499.23;239.97;;;16.80;99.90;;;;;;4956775;28;20764;-74
2023/09/11 03:45:02;;;;;;;522.80;248.93;;;;;;;;;;4957994;28;20257;-75
2023/09/11 03:47:28;;;;;;;459.73;215.87;;;;;;;;;;4945156;28;20229;-73
2023/09/11 03:49:54;;;;;;;489.07;232.90;;;;;;;;;;4934865;28;20225;-75
2023/09/11 03:52:19;;;;;;;490.67;236.70;;;;;;;;;;4943998;28;20272;-73
2023/09/11 03:54:45;;;;;;;474.80;228.97;;;;;;;;;;4958733;28;20216;-73
2023/09/11 03:57:11;;;;;;;480.37;228.83;;;;;;;;;;4955718;28;20212;-74
2023/09/11 03:59:37;;;;;;;473.20;223.73;;;;;;;;;;4957725;28;22890;-74
2023/09/11 04:02:03;;;;;;;466.27;216.23;;;;;;;;;;4952608;28;20956;-73
2023/09/11 04:04:29;;;;;;;488.67;228.73;;;;;;;;;;4973604;28;20724;-74
2023/09/11 04:06:55;;;;;;;464.53;222.40;;;;;;;;;;4959420;28;20258;-73
2023/09/11 04:09:21;;;;;;;506.60;248.90;;;;;;;;;;4940522;28;20180;-73
2023/09/11 04:11:47;;;;;;;493.17;239.83;;;;;;;;;;4954936;28;20215;-73
2023/09/11 04:14:12;;;;;;;467.27;222.83;;;16.30;99.90;;;;;;4953086;28;20222;-74
2023/09/11 04:16:38;;;;;;;456.57;216.63;;;;;;;;;;4972254;28;20271;-75
2023/09/11 04:19:04;;;;;;;503.40;240.27;;;;;;;;;;4959664;28;20724;-74
2023/09/11 04:21:30;;;;;;;478.33;227.53;;;16.40;99.90;;;;;;4936015;28;20213;-74
2023/09/11 04:23:56;;;;;;;467.03;218.57;;;;;;;;;;4946744;28;20296;-74
2023/09/11 04:26:22;;;;;;;497.80;239.13;;;;;;;;;;4939179;28;20350;-74
2023/09/11 04:28:48;;;;;;;494.97;233.63;;;;;;;;;;4958550;28;20224;-76
2023/09/11 04:31:14;;;;;;;478.60;226.83;;;;;;;;;;4940543;28;20214;-74
2023/09/11 04:33:40;;;;;;;508.80;242.83;;;;;;;;;;4939309;28;20272;-76
2023/09/11 04:36:06;;;;;;;487.30;231.73;;;;;;;;;;4958222;28;20317;-73
2023/09/11 04:38:32;;;;;;;493.17;231.07;;;;;;;;;;4961603;28;20243;-74
2023/09/11 04:40:58;;;;;;;457.00;212.73;;;;;;;;;;4963921;28;22171;-76
2023/09/11 04:43:24;;;;;;;472.03;221.37;;;;;;;;;;4973871;28;20367;-75
2023/09/11 04:45:50;;;;;;;456.40;218.37;;;;;;;;;;4959101;28;20209;-75
2023/09/11 04:48:16;;;;;;;496.93;242.83;;;;;;;;;;4951924;28;20555;-75
2023/09/11 04:50:42;;;;;;;486.80;230.30;;;;;;;;;;4948217;28;20708;-74
2023/09/11 04:53:08;;;;;;;466.63;219.43;;;;;;;;;;4971626;28;20249;-73
2023/09/11 04:55:34;;;;;;;505.80;235.53;;;;;;;;;;4964207;28;20762;-74
2023/09/11 04:58:00;;;;;;;465.50;221.80;;;;;;;;;;4962699;28;20217;-74
2023/09/11 05:00:26;;;;;;;470.60;224.60;;;16.20;99.90;;;;;;4957054;28;20177;-73
2023/09/11 05:02:52;;;;;;;480.47;224.83;;;;;;;;;;4971463;28;20244;-74
2023/09/11 05:05:18;;;;;;;472.37;223.40;;;;;;;;;;4973616;28;20587;-77
2023/09/11 05:07:44;;;;;;;492.23;237.37;;;;;;;;;;4955771;28;20220;-75
2023/09/11 05:10:14;;;;;;;463.50;215.97;;;;;;;;;;4971415;28;20229;-76
2023/09/11 05:12:40;;;;;;;450.00;215.37;;;;;;;;;;4954986;28;20190;-76
2023/09/11 05:15:06;;;;;;;475.63;224.73;;;;;;;;;;4964432;28;20352;-76
2023/09/11 05:17:32;;;;;;;522.03;259.00;;;;;;;;;;4954069;28;20381;-74
2023/09/11 05:19:58;;;;;;;482.97;225.87;;;;;;;;;;4967027;28;20308;-78
2023/09/11 05:22:24;;;;;;;489.00;228.27;;;;;;;;;;4958920;28;20274;-78
2023/09/11 05:24:51;;;;;;;711.07;388.43;;;;;;;;;;4929502;28;20201;-79
2023/09/11 05:27:17;;;;;;;528.40;266.53;;;;;;;;;;4932477;28;20929;-77
2023/09/11 05:29:43;;;;;;;445.90;209.53;;;;;;;;;;4935667;28;20320;-75
2023/09/11 05:32:09;;;;;;;461.57;219.97;;;;;;;;;;4955200;28;20829;-78
2023/09/11 05:34:35;;;;;;;478.73;236.43;;;;;;;;;;4952419;28;20316;-77
2023/09/11 05:37:01;;;;;;;482.43;242.57;;;;;;;;;;4962312;28;20185;-74
2023/09/11 05:39:27;;;;;;;509.73;259.37;;;;;;;;;;4969636;28;20177;-74
2023/09/11 05:41:53;;;;;;;484.80;238.50;;;;;;;;;;4941110;28;20210;-74
2023/09/11 05:44:18;;;;;;;537.97;277.97;;;;;;;;;;4937294;28;20229;-73
2023/09/11 05:46:45;;;;;;;512.67;263.83;;;;;;;;;;4966505;28;20217;-74
2023/09/11 05:49:11;;;;;;;446.77;220.83;;;;;;;;;;4975992;28;20269;-77
2023/09/11 05:51:37;;;;;;;505.40;250.23;;;;;;;;;;4963839;28;20197;-69
2023/09/11 05:54:03;;;;;;;541.13;279.87;;;;;;;;;;4959425;28;20240;-67
2023/09/11 05:56:29;;;;;;;513.70;263.80;;;;;;;;;;4963888;28;20280;-68
2023/09/11 05:58:54;;;;;;;497.70;250.73;;;;;;;;;;4945186;28;20237;-67
2023/09/11 06:01:20;;;;;;;485.97;243.43;;;;;;;;;;4964378;28;20754;-68
2023/09/11 06:03:46;;;;;;;475.57;238.27;;;;;;;;;;4957468;28;20264;-68
2023/09/11 06:06:12;;;;;;;471.03;233.40;;;;;;;;;;4957328;28;20177;-66
2023/09/11 06:08:38;;;;;;;448.77;221.70;;;;;;;;;;4954327;28;20257;-58
2023/09/11 06:11:04;;;;;;;448.60;219.50;;;;;;;;;;4965670;28;20292;-58
2023/09/11 06:13:33;;;;;;;462.97;232.70;;;;;;;;;;4975593;28;20214;-58
2023/09/11 06:15:58;;;;;;;467.37;240.07;;;;;;;;;;4970013;28;20185;-58
2023/09/11 06:18:24;;;;;;;475.70;242.43;;;;;;;;;;4955724;28;20205;-59
2023/09/11 06:20:50;;;;;;;474.93;236.27;;;;;;;;;;4953529;28;20607;-58
2023/09/11 06:23:16;;;;;;;457.37;228.93;;;;;;;;;;4982872;28;20222;-59
2023/09/11 06:25:42;;;;;;;527.07;273.30;;;;;;;;;;4969550;28;20276;-57
2023/09/11 06:28:07;;;;;;;478.93;244.37;;;18.80;99.90;;;;;;4971856;28;20217;-58
2023/09/11 06:30:34;;;;;;;439.30;222.20;;;;;;;;;;4952415;28;20188;-58
2023/09/11 06:33:00;;;;;;;495.53;260.83;;;;;;;;;;4978612;28;20213;-59
2023/09/11 06:35:26;;;;;;;475.67;243.40;;;;;;;;;;4974269;28;20213;-58
2023/09/11 06:37:51;;;;;;;463.40;239.80;;;;;;;;;;4972074;28;20217;-58
2023/09/11 06:40:17;;;;;;;461.07;242.20;;;;;;;;;;4967542;28;20582;-58
2023/09/11 06:42:43;;;;;;;471.73;244.03;;;;;;;;;;4972239;28;20253;-58
2023/09/11 06:45:10;;;;;;;498.03;267.60;;;;;;;;;;4972472;28;20216;-59
2023/09/11 06:47:36;;;;;;;464.40;241.40;;;;;;;;;;4961165;28;20255;-59
2023/09/11 06:50:02;;;;;;;502.33;268.63;;;;;;;;;;4984769;28;20264;-58
2023/09/11 06:52:28;;;;;;;496.23;271.37;;;;;;;;;;4976562;28;20233;-58
2023/09/11 06:54:54;;;;;;;472.77;253.83;;;;;;;;;;4972421;28;20209;-58
2023/09/11 06:57:20;;;;;;;460.03;245.53;;;;;;;;;;4973368;28;20691;-58
2023/09/11 06:59:46;;;;;;;492.73;262.60;;;;;;;;;;4969374;28;20225;-57
2023/09/11 07:02:12;;;;;;;457.17;246.67;;;;;;;;;;4978040;28;20218;-58
2023/09/11 07:04:38;;;;;;;450.93;243.23;;;;;;;;;;4972365;28;20487;-58
2023/09/11 07:07:03;;;;;;;496.70;272.73;;;20.50;99.90;;;;;;4972787;28;21657;-58
2023/09/11 07:09:29;;;;;;;504.20;281.77;;;;;;;;;;4968067;28;20555;-59
2023/09/11 07:11:56;;;;;;;498.07;279.87;;;;;;;;;;4962040;28;20352;-59
2023/09/11 07:14:22;;;;;;;452.43;249.57;;;20.60;99.90;;;;;;4973356;28;20217;-59
2023/09/11 07:16:49;;;;;;;467.93;261.10;;;20.80;99.90;;;;;;4979696;28;20214;-58
2023/09/11 07:19:15;;;;;;;492.10;274.73;;;;;;;;;;4980180;28;21036;-58
2023/09/11 07:21:41;;;;;;;490.87;272.97;;;;;;;;;;4971837;28;20197;-58
2023/09/11 07:24:07;;;;;;;485.00;270.57;;;;;;;;;;4966105;28;20230;-58
2023/09/11 07:26:33;;;;;;;450.57;248.77;;;;;;;;;;4967314;28;20210;-58
2023/09/11 07:29:04;;;;;;;497.43;284.13;;;21.30;99.90;;;;;;4953698;28;20240;-59
2023/09/11 07:31:31;;;;;;;485.27;277.53;;;21.70;99.90;;;;;;4973393;28;20225;-60
2023/09/11 07:33:57;;;;;;;526.40;310.00;;;;;;;;;;4970163;28;20220;-63
2023/09/11 07:36:23;;;;;;;466.20;262.70;;;;;;;;;;4977893;28;20190;-61
2023/09/11 07:38:49;;;;;;;472.37;275.27;;;;;;;;;;4969047;28;20213;-61
2023/09/11 07:41:19;;;;;;;455.17;266.70;;;21.70;99.90;;;;;;4966723;28;20502;-61
2023/09/11 07:43:49;;;;;;;478.43;283.60;;;21.80;1.00;;;;;;4969021;28;20348;-61
2023/09/11 07:46:15;;;;;;;524.53;313.23;;;;;;;;;;4952457;28;20592;-61
2023/09/11 07:48:41;;;;;;;467.87;272.40;;;;;;;;;;4938965;28;20454;-62
2023/09/11 07:51:07;;;;;;;499.77;298.60;;;;;;;;;;4952856;28;20820;-61
2023/09/11 07:53:32;;;;;;;471.03;276.23;;;22.20;99.90;;;;;;4948037;28;20324;-62
2023/09/11 07:55:58;;;;;;;509.40;302.77;;;;;;;;;;4965537;28;20221;-62
2023/09/11 07:58:24;;;;;;;489.80;295.23;;;;;;;;;;4953692;28;20233;-62
2023/09/11 08:00:50;;;;;;;477.77;287.97;;;;;;;;;;4962869;28;20209;-62
2023/09/11 08:03:16;;;;;;;530.27;322.97;;;;;;;;;;4963256;28;20581;-62
2023/09/11 08:05:42;;;;;;;486.40;297.13;;;22.60;99.90;;;;;;4953592;28;20230;-62
2023/09/11 08:08:08;;;;;;;479.43;286.40;;;;;;;;;;4962047;28;20819;-61
2023/09/11 08:10:34;;;;;;;515.37;318.63;;;;;;;;;;4951988;28;20213;-61
2023/09/11 08:12:59;;;;;;;485.47;295.93;;;22.80;99.90;;;;;;4956600;28;20189;-62
2023/09/11 08:15:28;;;;;;;489.13;308.93;;;;;;;;;;4958643;28;21010;-62
2023/09/11 08:17:54;;;;;;;483.33;302.30;;;;;;;;;;4966655;28;20224;-62
2023/09/11 08:20:19;;;;;;;475.10;296.17;;;;;;;;;;4973822;28;20831;-62
2023/09/11 08:22:45;;;;;;;491.03;305.30;;;;;;;;;;4972527;28;20205;-61
2023/09/11 08:25:12;;;;;;;480.23;307.47;;;23.30;4.10;;;;;;4951609;28;20249;-61
2023/09/11 08:27:38;;;;;;;498.90;309.50;;;;;;;;;;4954166;28;20878;-63
2023/09/11 08:30:06;;;;;;;504.33;321.77;;;23.30;1.00;;;;;;4939336;28;20716;-61
2023/09/11 08:32:34;;;;;;;479.60;304.20;;;;;;;;;;4974952;28;20260;-61
2023/09/11 08:35:02;;;;;;;480.20;305.73;;;;;;;;;;4969904;28;20753;-62
2023/09/11 08:37:28;;;;;;;510.87;324.73;;;;;;;;;;4969769;28;20274;-62
2023/09/11 08:39:54;;;;;;;476.30;306.17;;;;;;;;;;4975538;28;20245;-63
2023/09/11 08:42:20;;;;;;;483.53;309.53;;;;;;;;;;4952148;28;20272;-62
2023/09/11 08:44:45;;;;;;;489.20;315.83;;;23.90;1.00;;;;;;4967369;28;20296;-62
2023/09/11 08:47:13;;;;;;;525.30;343.93;;;23.90;96.90;;;;;;4969426;28;20764;-62
2023/09/11 08:49:43;;;;;;;460.80;294.83;;;24.90;97.00;;;;;;4968963;28;20271;-62
2023/09/11 08:52:15;;;;;;;467.53;313.47;;;24.00;96.50;;;;;;4972911;28;20856;-62
2023/09/11 08:54:47;;;;;;;489.60;326.60;;;24.00;96.00;;;;;;4954654;28;20735;-63
2023/09/11 08:57:15;;;;;;;493.40;320.17;;;24.20;95.00;;;;;;4962088;28;20218;-62
2023/09/11 08:59:44;;;;;;;478.73;316.50;;;24.30;94.00;;;;;;4975553;28;20723;-61
2023/09/11 09:02:11;;;;;;;514.60;340.43;;;24.40;1.00;;;;;;4966936;28;20228;-62
2023/09/11 09:04:40;;;;;;;492.87;326.67;;;24.50;1.00;;;;;;4974502;28;20232;-63
2023/09/11 09:07:06;;;;;;;490.90;329.07;;;24.60;91.70;;;;;;4966521;28;20723;-62
2023/09/11 09:09:32;;;;;;;480.93;325.70;;;;;;;;;;4973201;28;20277;-62
2023/09/11 09:11:58;;;;;;;536.60;361.23;;;24.80;90.00;;;;;;4960980;28;20218;-62
2023/09/11 09:14:27;;;;;;;550.40;364.77;;;24.80;99.90;;;;;;4961336;28;20226;-62
2023/09/11 09:16:53;;;;;;;478.67;324.50;;;;;;;;;;4965560;28;20220;-62
2023/09/11 09:19:19;;;;;;;513.73;352.33;;;;;;;;;;4942114;28;20794;-63
2023/09/11 09:22:05;;;;;;;500.20;341.40;;;25.00;84.00;;;;;;4967703;28;20200;-62
2023/09/11 09:24:36;;;;;;;533.87;364.10;;;25.10;83.40;;;;;;4971379;28;20213;-62
2023/09/11 09:27:06;;;;;;;499.10;335.47;;;25.20;82.60;;;;;;4966345;28;20291;-62
2023/09/11 09:29:39;;;;;;;551.73;379.67;;;25.30;79.60;;;;;;4962937;28;20275;-63
2023/09/11 09:32:06;;;;;;;517.23;355.63;;;25.30;79.10;;;;;;4962388;28;20229;-64
2023/09/11 09:34:32;;;;;;;475.30;330.53;;;25.50;83.00;;;;;;4959497;28;20231;-62
2023/09/11 09:36:58;;;;;;;507.87;344.97;;;;;;;;;;4946465;28;20285;-62
2023/09/11 09:39:28;;;;;;;538.20;372.07;;;;;;;;;;4963729;28;20771;-61
2023/09/11 09:42:01;;;;;;;476.80;332.33;;;25.80;73.10;;;;;;4969009;28;20252;-62
2023/09/11 09:44:36;;;;;;;481.93;335.40;;;22.20;66.60;;;;;;4954091;28;20241;-70
2023/09/11 09:47:20;;;;;;;552.33;375.63;;;25.90;69.60;;;;;;4966696;28;20222;-71
2023/09/11 09:49:47;;;;;;;494.83;337.03;;;26.00;71.50;;;;;;4970698;28;20214;-70
2023/09/11 09:52:14;;;;;;;526.03;363.00;;;;;;;;;;4973380;28;20216;-70
2023/09/11 09:55:08;;;;;;;521.47;356.50;;;26.20;69.40;;;;;;4965134;28;20700;-66
2023/09/11 09:57:34;;;;;;;546.60;373.33;;;;;;;;;;4953195;28;20237;-59
2023/09/11 10:00:01;;;;;;;534.33;365.50;;;26.40;66.60;;;;;;4960796;28;20218;-62
2023/09/11 10:02:29;;;;;;;489.63;350.00;;;26.50;65.90;;;;;;4960526;28;20216;-59
2023/09/11 10:04:57;;;;;;;567.17;395.93;;;26.60;63.50;;;;;;4938684;28;20603;-59
2023/09/11 10:07:40;;;;;;;508.93;361.20;;;26.60;61.20;;;;;;4953580;28;20228;-59
2023/09/11 10:10:29;;;;;;;582.87;400.93;;;26.70;59.30;;;;;;4955980;28;20213;-61
2023/09/11 10:13:09;;;;;;;523.97;375.07;;;26.80;60.30;;;;;;4960476;28;20178;-61
2023/09/11 10:15:37;;;;;;;521.10;368.37;;;26.90;56.40;;;;;;4952709;28;20197;-62
2023/09/11 10:18:04;;;;;;;504.83;363.43;;;27.00;54.20;;;;;;4972212;28;20734;-62
2023/09/11 10:20:30;;;;;;;534.30;380.67;;;;;;;;;;4949329;28;20214;-59
2023/09/11 10:22:57;;;;;;;534.83;382.87;;;27.10;53.40;;;;;;4946606;28;20214;-59
2023/09/11 10:25:24;;;;;;;567.67;403.07;;;;;;;;;;4951655;28;20280;-59
2023/09/11 10:27:53;;;;;;;539.20;389.83;;;27.20;47.90;;;;;;4955391;28;20186;-60
2023/09/11 10:30:21;;;;;;;515.23;382.03;;;27.20;45.20;;;;;;4959007;28;20197;-59
2023/09/11 10:32:57;;;;;;;493.80;362.90;;;27.40;45.30;;;;;;4941915;28;20221;-58
2023/09/11 10:35:25;;;;;;;552.27;399.17;;;27.50;39.10;;;;;;4941764;28;20773;-59
2023/09/11 10:37:56;;;;;;;494.60;363.00;;;29.00;41.30;;;;;;4971484;28;20226;-59
2023/09/11 10:40:23;;;;;;;525.07;384.03;;;27.60;38.10;;;;;;4981561;28;20271;-59
2023/09/11 10:42:49;;;;;;;531.17;378.90;;;;;;;;;;4967930;28;20189;-59
2023/09/11 10:45:34;;;;;;;538.90;397.00;;;27.60;35.50;;;;;;4975335;28;20232;-59
2023/09/11 10:48:00;;;;;;;517.03;385.93;;;;;;;;;;4973312;28;20213;-59
2023/09/11 10:50:37;;;;;;;496.47;361.40;;;27.70;34.90;;;;;;4957027;28;20237;-59
2023/09/11 10:53:07;;;;;;;520.77;389.77;;;27.80;34.90;;;;;;4969108;28;20328;-59
2023/09/11 10:55:34;;;;;;;529.73;390.50;;;;;;;;;;4960279;28;20221;-59
2023/09/11 10:58:02;;;;;;;533.40;393.33;;;27.90;31.60;;;;;;4970422;28;20594;-59
2023/09/11 11:00:28;;;;;;;536.93;393.27;;;;;;;;;;4971907;28;20190;-59
2023/09/11 11:02:56;;;;;;;486.07;367.30;;;;;;;;;;4974858;28;20647;-58
2023/09/11 11:05:22;;;;;;;551.83;407.60;;;;;;;;;;4969874;28;20214;-59
2023/09/11 11:07:49;;;;;;;543.77;404.93;;;28.30;29.70;;;;;;4966749;28;20221;-58
2023/09/11 11:10:16;;;;;;;517.93;388.13;;;28.40;28.50;;;;;;4975783;28;20245;-59
2023/09/11 11:12:42;;;;;;;483.30;375.93;;;;;;;;;;4974895;28;20185;-62
2023/09/11 11:15:37;;;;;;;533.23;401.63;;;28.50;28.30;;;;;;4951085;28;20584;-62
2023/09/11 11:18:09;;;;;;;474.00;371.50;;;28.50;28.00;;;;;;4946415;28;20225;-72
2023/09/11 11:20:35;;;;;;;492.00;385.00;;;;;;;;;;4957149;28;20240;-62
2023/09/11 11:23:09;;;;;;;507.40;398.23;;;28.70;28.20;;;;;;4973556;28;20221;-63
2023/09/11 11:25:35;;;;;;;555.30;429.03;;;28.80;28.80;;;;;;4971421;28;20251;-62
2023/09/11 11:28:14;;;;;;;518.30;404.50;;;28.80;27.60;;;;;;4971334;28;20216;-63
2023/09/11 11:30:40;;;;;;;502.23;394.97;;;28.80;27.80;;;;;;4968140;28;20205;-62
2023/09/11 11:33:06;;;;;;;484.77;384.33;;;;;;;;;;4974723;28;20347;-62
2023/09/11 11:35:32;;;;;;;498.70;394.77;;;29.00;25.30;;;;;;4968171;28;20320;-62
2023/09/11 11:37:58;;;;;;;512.70;399.50;;;;;;;;;;4967755;28;21542;-62
2023/09/11 11:40:25;;;;;;;507.40;402.37;;;29.30;25.30;;;;;;4974876;28;20233;-62
2023/09/11 11:42:51;;;;;;;499.67;400.17;;;;;;;;;;4967927;28;20348;-60
2023/09/11 11:45:17;;;;;;;537.47;410.83;;;29.60;24.30;;;;;;4952670;28;20691;-62
2023/09/11 11:47:43;;;;;;;531.60;422.00;;;;;;;;;;4963809;28;20308;-62
2023/09/11 11:50:10;;;;;;;552.37;435.63;;;29.60;23.90;;;;;;4951392;28;20752;-61
2023/09/11 11:52:36;;;;;;;570.43;440.43;;;;;;;;;;4952922;28;20228;-61
2023/09/11 11:55:02;;;;;;;516.97;424.40;;;;;;;;;;4954680;28;20214;-61
2023/09/11 11:57:29;;;;;;;526.23;421.30;;;30.20;24.90;;;;;;4950086;28;20196;-62
2023/09/11 11:59:55;;;;;;;522.40;418.03;;;;;;;;;;4945124;28;20308;-62
2023/09/11 12:02:24;;;;;;;521.17;425.70;;;30.50;23.90;;;;;;4964879;28;20217;-62
2023/09/11 12:04:54;;;;;;;486.50;411.80;;;30.70;24.40;;;;;;4957171;28;20221;-62
2023/09/11 12:07:22;;;;;;;515.37;427.90;;;30.40;22.30;;;;;;4970412;28;20226;-62
2023/09/11 12:09:48;;;;;;;505.33;413.37;;;;;;;;;;4967997;28;20193;-62
2023/09/11 12:12:14;;;;;;;558.90;448.17;;;;;;;;;;4950013;28;20191;-62
2023/09/11 12:14:40;;;;;;;536.87;433.90;;;;;;;;;;4963223;28;20238;-62
2023/09/11 12:17:09;;;;;;;474.50;403.80;;;31.10;22.10;;;;;;4973452;28;20218;-62
2023/09/11 12:19:35;;;;;;;529.03;436.23;;;;;;;;;;4965537;28;20233;-61
2023/09/11 12:22:02;;;;;;;538.00;444.83;;;;;;;;;;4951956;28;20197;-62
2023/09/11 12:24:28;;;;;;;539.25;442.98;;;;;;;;;;4941302;28;20242;-62
2023/09/11 12:26:54;;;;;;;525.60;436.83;;;;;;;;;;4958414;28;20756;-62
2023/09/11 12:29:20;;;;;;;595.88;486.83;;;;;;;;;;4963208;28;20255;-62
2023/09/11 12:31:46;;;;;;;499.17;429.90;;;;;;;;;;4954434;28;20308;-62
2023/09/11 12:34:12;;;;;;;555.55;462.98;;;;;;;;;;4968944;28;20251;-62
2023/09/11 12:36:38;;;;;;;525.60;446.90;;;;;;;;;;4967369;28;20679;-62
2023/09/11 12:39:06;;;;;;;565.47;472.65;;;31.90;19.20;;;;;;4965623;28;20229;-62
2023/09/11 12:41:32;;;;;;;533.15;459.98;;;;;;;;;;4969652;28;20819;-61
2023/09/11 12:43:59;;;;;;;580.60;482.98;;;32.40;19.10;;;;;;4966289;28;20232;-62
2023/09/11 12:46:25;;;;;;;526.80;457.20;;;;;;;;;;4967317;28;20213;-62
2023/09/11 12:48:51;;;;;;;504.83;441.17;;;;;;;;;;4966671;28;20340;-62
2023/09/11 12:51:17;;;;;;;590.00;488.33;;;32.70;20.20;;;;;;4967259;28;20200;-62
2023/09/11 12:53:45;;;;;;;536.85;468.77;;;32.50;18.00;;;;;;4964587;28;20532;-62
2023/09/11 12:56:12;;;;;;;516.08;452.00;;;32.60;18.60;;;;;;4965036;28;20383;-61
2023/09/11 12:58:38;;;;;;;510.02;451.80;;;32.70;20.60;;;;;;4968504;28;20227;-63
2023/09/11 13:01:05;;;;;;;544.97;470.52;;;32.60;16.90;;;;;;4959099;28;20213;-62
2023/09/11 13:03:31;;;;;;;555.67;469.65;;;;;;;;;;4949891;28;20243;-62
2023/09/11 13:05:57;;;;;;;533.47;462.23;;;;;;;;;;4971234;28;20280;-62
2023/09/11 13:08:26;;;;;;;561.05;479.63;;;32.90;18.70;;;;;;4967978;28;20224;-62
2023/09/11 13:10:52;;;;;;;550.00;474.55;;;33.20;18.30;;;;;;4975192;28;20205;-62
2023/09/11 13:13:18;;;;;;;564.95;495.40;;;;;;;;;;4967858;28;20213;-62
2023/09/11 13:15:43;;;;;;;539.42;481.13;;;33.70;20.40;;;;;;4969650;28;20206;-62
2023/09/11 13:18:09;;;;;;;576.45;506.20;;;;;;;;;;4972725;28;20223;-62